createdAt,value
2018-04-25T00:00:44.874Z,10.30
2018-04-25T00:03:12.532Z,11.37
2018-04-25T00:05:40.186Z,11.18
2018-04-25T00:08:07.865Z,10.40
2018-04-25T00:10:35.527Z,10.30
2018-04-25T00:13:03.168Z,9.30
2018-04-25T00:15:30.803Z,9.37
2018-04-25T00:17:58.491Z,8.27
2018-04-25T00:20:27.700Z,8.60
2018-04-25T00:22:55.379Z,9.10
2018-04-25T00:25:23.146Z,8.80
2018-04-25T00:27:50.671Z,8.68
2018-04-25T00:30:18.257Z,8.73
2018-04-25T00:32:45.835Z,8.53
2018-04-25T00:35:14.375Z,8.47
2018-04-25T00:37:41.972Z,8.87
2018-04-25T00:40:10.432Z,8.67
2018-04-25T00:42:38.917Z,7.27
2018-04-25T00:45:07.265Z,8.52
2018-04-25T00:47:35.035Z,7.13
2018-04-25T00:50:02.555Z,8.40
2018-04-25T00:52:31.050Z,6.80
2018-04-25T00:54:58.571Z,7.97
2018-04-25T00:57:26.505Z,7.53
2018-04-25T00:59:54.195Z,7.50
2018-04-25T01:02:22.628Z,7.13
2018-04-25T01:04:50.349Z,6.87
2018-04-25T01:07:17.993Z,7.00
2018-04-25T01:09:46.482Z,7.20
2018-04-25T01:12:13.995Z,6.60
2018-04-25T01:14:41.532Z,7.70
2018-04-25T01:17:09.055Z,7.53
2018-04-25T01:19:37.455Z,6.80
2018-04-25T01:22:05.151Z,6.80
2018-04-25T01:24:32.814Z,6.62
2018-04-25T01:27:01.270Z,6.57
2018-04-25T01:29:28.870Z,6.18
2018-04-25T01:31:56.509Z,6.80
2018-04-25T01:34:30.668Z,6.20
2018-04-25T01:40:00.072Z,6.15
2018-04-25T01:42:32.484Z,6.23
2018-04-25T01:48:06.668Z,5.37
2018-04-25T01:50:36.955Z,6.90
2018-04-25T01:53:16.316Z,6.03
2018-04-25T01:55:55.968Z,6.27
2018-04-25T01:58:35.576Z,5.93
2018-04-25T02:01:16.064Z,6.65
2018-04-25T02:04:00.311Z,6.37
2018-04-25T02:06:27.969Z,5.65
2018-04-25T02:08:56.364Z,6.00
2018-04-25T02:11:24.006Z,6.55
2018-04-25T02:13:51.627Z,6.28
2018-04-25T02:16:19.238Z,4.50
2018-04-25T02:18:46.907Z,4.22
2018-04-25T02:21:14.476Z,4.85
2018-04-25T02:23:42.060Z,4.07
2018-04-25T02:26:09.652Z,3.70
2018-04-25T02:28:37.332Z,3.70
2018-04-25T02:31:04.896Z,3.70
2018-04-25T02:33:33.307Z,3.60
2018-04-25T02:36:00.871Z,3.60
2018-04-25T02:38:28.607Z,4.10
2018-04-25T02:40:56.352Z,4.72
2018-04-25T02:43:23.973Z,4.20
2018-04-25T02:45:51.584Z,4.80
2018-04-25T02:48:19.111Z,4.15
2018-04-25T02:50:46.737Z,4.07
2018-04-25T02:53:14.362Z,3.83
2018-04-25T02:55:41.936Z,3.77
2018-04-25T02:58:09.552Z,3.80
2018-04-25T03:00:37.248Z,3.20
2018-04-25T03:03:05.860Z,2.70
2018-04-25T03:05:33.561Z,3.20
2018-04-25T03:08:01.288Z,3.20
2018-04-25T03:10:29.019Z,3.00
2018-04-25T03:12:56.685Z,3.47
2018-04-25T03:15:24.551Z,2.78
2018-04-25T03:17:52.109Z,2.90
2018-04-25T03:20:20.585Z,2.60
2018-04-25T03:22:48.052Z,3.53
2018-04-25T03:25:15.805Z,2.53
2018-04-25T03:27:44.325Z,2.40
2018-04-25T03:30:12.177Z,2.53
2018-04-25T03:32:39.809Z,1.90
2018-04-25T03:35:07.534Z,2.10
2018-04-25T03:37:35.288Z,2.28
2018-04-25T03:40:02.941Z,1.90
2018-04-25T03:42:30.675Z,2.25
2018-04-25T03:44:59.155Z,2.12
2018-04-25T03:47:27.005Z,1.95
2018-04-25T03:49:54.562Z,2.70
2018-04-25T03:52:22.306Z,1.80
2018-04-25T03:54:49.919Z,2.00
2018-04-25T03:57:17.785Z,2.20
2018-04-25T03:59:45.448Z,2.25
2018-04-25T04:02:13.011Z,2.60
2018-04-25T04:04:40.667Z,2.87
2018-04-25T04:07:08.441Z,2.65
2018-04-25T04:09:36.080Z,2.17
2018-04-25T04:12:03.828Z,2.10
2018-04-25T04:14:31.505Z,2.00
2018-04-25T04:16:59.293Z,2.03
2018-04-25T04:19:27.855Z,2.47
2018-04-25T04:21:56.124Z,2.75
2018-04-25T04:24:23.727Z,2.60
2018-04-25T04:26:51.314Z,2.90
2018-04-25T04:29:19.013Z,2.75
2018-04-25T04:31:46.659Z,2.95
2018-04-25T04:34:15.143Z,3.58
2018-04-25T04:36:47.513Z,3.72
2018-04-25T04:39:20.021Z,3.35
2018-04-25T04:44:37.822Z,3.97
2018-04-25T04:47:12.624Z,4.00
2018-04-25T04:49:47.700Z,4.45
2018-04-25T04:52:16.481Z,4.60
2018-04-25T04:54:46.424Z,4.70
2018-04-25T04:57:16.689Z,4.60
2018-04-25T04:59:48.469Z,5.45
2018-04-25T05:06:07.818Z,4.95
2018-04-25T05:08:39.090Z,5.25
2018-04-25T05:11:12.027Z,5.32
2018-04-25T05:13:46.838Z,5.55
2018-04-25T05:16:19.146Z,6.15
2018-04-25T05:18:49.142Z,4.68
2018-04-25T05:21:19.238Z,4.62
2018-04-25T05:23:46.787Z,5.97
2018-04-25T05:26:14.600Z,6.10
2018-04-25T05:28:43.042Z,4.87
2018-04-25T05:31:10.702Z,5.10
2018-04-25T05:33:38.908Z,5.40
2018-04-25T05:36:07.656Z,5.62
2018-04-25T05:38:35.384Z,5.60
2018-04-25T05:41:02.996Z,6.22
2018-04-25T05:43:31.816Z,5.55
2018-04-25T05:46:01.122Z,5.93
2018-04-25T05:48:29.559Z,5.55
2018-04-25T05:50:57.911Z,4.60
2018-04-25T05:53:25.599Z,5.28
2018-04-25T05:55:53.251Z,5.68
2018-04-25T05:58:20.944Z,5.18
2018-04-25T06:00:49.340Z,5.40
2018-04-25T06:03:17.796Z,5.60
2018-04-25T06:05:48.153Z,5.43
2018-04-25T06:08:21.235Z,6.28
2018-04-25T06:10:57.371Z,6.50
2018-04-25T06:13:26.643Z,6.10
2018-04-25T06:15:55.487Z,5.80
2018-04-25T06:18:26.276Z,5.80
2018-04-25T06:21:02.617Z,5.43
2018-04-25T06:23:32.467Z,6.53
2018-04-25T06:26:02.163Z,6.25
2018-04-25T06:28:31.568Z,6.68
2018-04-25T06:31:01.841Z,6.37
2018-04-25T06:33:30.361Z,6.15
2018-04-25T06:35:57.893Z,6.70
2018-04-25T06:38:26.272Z,5.53
2018-04-25T06:40:54.645Z,7.30
2018-04-25T06:43:23.473Z,7.50
2018-04-25T06:45:51.651Z,7.45
2018-04-25T06:48:26.699Z,7.45
2018-04-25T06:50:57.083Z,7.32
2018-04-25T06:53:25.612Z,6.75
2018-04-25T06:55:54.604Z,7.90
2018-04-25T06:58:22.124Z,7.07
2018-04-25T07:00:49.674Z,7.15
2018-04-25T07:03:18.483Z,8.15
2018-04-25T07:05:46.031Z,6.65
2018-04-25T07:08:13.603Z,7.43
2018-04-25T07:10:41.068Z,6.93
2018-04-25T07:13:08.581Z,6.90
2018-04-25T07:15:36.120Z,7.60
2018-04-25T07:18:03.628Z,8.25
2018-04-25T07:20:32.399Z,7.68
2018-04-25T07:23:01.953Z,8.95
2018-04-25T07:25:31.944Z,9.15
2018-04-25T07:27:59.815Z,9.00
2018-04-25T07:30:27.395Z,8.15
2018-04-25T07:32:55.025Z,8.52
2018-04-25T07:35:23.311Z,9.13
2018-04-25T07:37:50.758Z,9.10
2018-04-25T07:40:18.287Z,8.35
2018-04-25T07:42:45.810Z,8.40
2018-04-25T07:45:13.343Z,9.43
2018-04-25T07:47:40.978Z,6.75
2018-04-25T07:50:09.280Z,7.60
2018-04-25T07:52:36.792Z,6.07
2018-04-25T07:55:04.339Z,6.53
2018-04-25T07:57:31.839Z,6.35
2018-04-25T08:00:00.132Z,6.60
2018-04-25T08:02:28.407Z,7.17
2018-04-25T08:04:55.931Z,6.57
2018-04-25T08:07:24.540Z,5.47
2018-04-25T08:09:52.107Z,5.40
2018-04-25T08:12:32.135Z,5.57
2018-04-25T08:15:11.460Z,4.53
2018-04-25T08:17:51.014Z,3.53
2018-04-25T08:20:30.459Z,4.30
2018-04-25T08:22:58.110Z,3.97
2018-04-25T08:25:26.395Z,5.40
2018-04-25T08:27:54.662Z,3.80
2018-04-25T08:30:22.187Z,3.80
2018-04-25T08:32:49.679Z,3.97
2018-04-25T08:35:17.210Z,4.40
2018-04-25T08:37:44.723Z,4.20
2018-04-25T08:40:13.142Z,3.73
2018-04-25T08:42:40.742Z,4.43
2018-04-25T08:45:08.335Z,4.17
2018-04-25T08:47:35.850Z,4.97
2018-04-25T08:50:03.351Z,4.83
2018-04-25T08:52:30.862Z,5.13
2018-04-25T08:54:58.394Z,6.03
2018-04-25T08:57:25.914Z,5.53
2018-04-25T08:59:53.439Z,4.67
2018-04-25T09:02:20.959Z,5.37
2018-04-25T09:04:48.491Z,4.60
2018-04-25T09:07:15.996Z,7.03
2018-04-25T09:09:43.536Z,5.80
2018-04-25T09:12:11.035Z,7.27
2018-04-25T09:14:38.542Z,5.00
2018-04-25T09:17:06.051Z,4.70
2018-04-25T09:19:33.551Z,5.57
2018-04-25T09:22:01.051Z,4.70
2018-04-25T09:24:28.585Z,5.07
2018-04-25T09:27:03.242Z,5.80
2018-04-25T09:29:31.527Z,5.47
2018-04-25T09:31:59.052Z,6.03
2018-04-25T09:34:26.750Z,5.87
2018-04-25T09:36:54.242Z,5.63
2018-04-25T09:39:22.507Z,6.20
2018-04-25T09:41:50.859Z,6.10
2018-04-25T09:44:18.367Z,5.93
2018-04-25T09:46:45.877Z,6.97
2018-04-25T09:49:13.393Z,6.50
2018-04-25T09:51:40.977Z,7.17
2018-04-25T09:54:08.452Z,7.07
2018-04-25T09:56:35.959Z,7.40
2018-04-25T09:59:03.499Z,7.53
2018-04-25T10:01:31.771Z,7.13
2018-04-25T10:04:00.056Z,7.87
2018-04-25T10:06:28.358Z,7.70
2018-04-25T10:08:55.869Z,8.43
2018-04-25T10:11:23.367Z,8.83
2018-04-25T10:13:54.665Z,8.60
2018-04-25T10:16:24.266Z,9.90
2018-04-25T10:18:56.033Z,7.60
2018-04-25T10:21:23.607Z,7.50
2018-04-25T10:23:51.107Z,7.73
2018-04-25T10:26:18.627Z,8.47
2018-04-25T10:28:46.119Z,8.37
2018-04-25T10:31:13.976Z,8.37
2018-04-25T10:33:42.035Z,9.37
2018-04-25T10:36:10.311Z,8.93
2018-04-25T10:38:38.655Z,9.03
2018-04-25T10:41:06.196Z,8.83
2018-04-25T10:43:33.701Z,9.03
2018-04-25T10:46:01.205Z,8.80
2018-04-25T10:48:29.915Z,8.33
2018-04-25T10:50:59.127Z,7.90
2018-04-25T10:53:28.146Z,8.90
2018-04-25T10:55:56.523Z,7.20
2018-04-25T10:58:24.825Z,6.23
2018-04-25T11:00:52.334Z,5.87
2018-04-25T11:03:19.859Z,6.13
2018-04-25T11:05:47.366Z,5.57
2018-04-25T11:08:15.770Z,5.50
2018-04-25T11:10:46.247Z,5.20
2018-04-25T11:13:15.864Z,6.70
2018-04-25T11:15:44.210Z,6.37
2018-04-25T11:18:11.717Z,6.30
2018-04-25T11:20:39.311Z,6.27
2018-04-25T11:23:06.917Z,5.70
2018-04-25T11:25:34.415Z,7.87
2018-04-25T11:28:02.783Z,6.70
2018-04-25T11:30:31.087Z,6.07
2018-04-25T11:32:58.594Z,6.10
2018-04-25T11:35:26.127Z,6.00
2018-04-25T11:37:54.543Z,4.33
2018-04-25T11:40:22.043Z,6.33
2018-04-25T11:42:49.539Z,4.90
2018-04-25T11:45:17.826Z,4.33
2018-04-25T11:47:45.338Z,5.33
2018-04-25T11:50:13.063Z,5.00
2018-04-25T11:52:40.733Z,4.27
2018-04-25T11:55:09.649Z,3.53
2018-04-25T11:57:37.167Z,2.80
2018-04-25T12:00:04.683Z,2.67
2018-04-25T12:02:32.249Z,2.87
2018-04-25T12:04:59.878Z,2.50
2018-04-25T12:07:27.471Z,2.93
2018-04-25T12:09:54.967Z,2.60
2018-04-25T12:12:22.465Z,2.50
2018-04-25T12:14:50.745Z,2.67
2018-04-25T12:17:18.239Z,2.63
2018-04-25T12:19:45.755Z,1.90
2018-04-25T12:22:14.039Z,2.37
2018-04-25T12:24:41.535Z,2.40
2018-04-25T12:27:09.031Z,2.07
2018-04-25T12:29:36.693Z,2.43
2018-04-25T12:32:04.179Z,2.30
2018-04-25T12:34:31.675Z,2.50
2018-04-25T12:36:59.220Z,2.70
2018-04-25T12:39:26.708Z,3.10
2018-04-25T12:41:54.211Z,2.50
2018-04-25T12:44:21.751Z,2.73
2018-04-25T12:46:50.037Z,2.03
2018-04-25T12:49:19.057Z,2.93
2018-04-25T12:51:46.591Z,2.60
2018-04-25T12:54:14.086Z,2.77
2018-04-25T12:56:43.287Z,2.47
2018-04-25T12:59:10.811Z,2.40
2018-04-25T13:01:38.315Z,1.70
2018-04-25T13:04:06.976Z,2.07
2018-04-25T13:06:34.516Z,2.30
2018-04-25T13:09:02.092Z,2.37
2018-04-25T13:11:29.535Z,2.30
2018-04-25T13:13:57.047Z,2.40
2018-04-25T13:16:24.548Z,1.60
2018-04-25T13:18:52.803Z,2.23
2018-04-25T13:21:21.147Z,1.77
2018-04-25T13:23:52.867Z,1.90
2018-04-25T13:26:21.126Z,2.13
2018-04-25T13:28:48.733Z,2.33
2018-04-25T13:31:16.323Z,2.00
2018-04-25T13:33:43.838Z,2.07
2018-04-25T13:36:11.359Z,1.70
2018-04-25T13:38:39.707Z,1.87
2018-04-25T13:41:07.201Z,1.83
2018-04-25T13:43:34.760Z,1.83
2018-04-25T13:46:03.065Z,2.00
2018-04-25T13:48:30.595Z,1.93
2018-04-25T13:50:59.028Z,1.60
2018-04-25T13:53:26.541Z,1.47
2018-04-25T13:55:54.083Z,1.47
2018-04-25T13:58:23.387Z,1.93
2018-04-25T14:00:51.724Z,1.87
2018-04-25T14:03:20.051Z,1.50
2018-04-25T14:05:48.319Z,1.70
2018-04-25T14:08:16.609Z,1.67
2018-04-25T14:10:44.878Z,1.93
2018-04-25T14:13:13.162Z,2.00
2018-04-25T14:15:41.422Z,1.67
2018-04-25T14:18:08.932Z,1.40
2018-04-25T14:20:36.435Z,1.97
2018-04-25T14:23:03.931Z,2.47
2018-04-25T14:25:31.442Z,2.10
2018-04-25T14:27:58.934Z,1.67
2018-04-25T14:30:27.091Z,1.70
2018-04-25T14:32:54.603Z,1.97
2018-04-25T14:35:22.104Z,1.80
2018-04-25T14:37:49.611Z,1.67
2018-04-25T14:40:17.244Z,1.80
2018-04-25T14:42:44.795Z,1.40
2018-04-25T14:45:15.107Z,2.60
2018-04-25T14:47:43.668Z,1.40
2018-04-25T14:50:11.171Z,2.13
2018-04-25T14:52:42.220Z,1.50
2018-04-25T14:55:09.788Z,1.40
2018-04-25T14:57:37.283Z,1.63
2018-04-25T15:00:04.843Z,1.80
2018-04-25T15:02:32.476Z,1.57
2018-04-25T15:05:00.082Z,1.60
2018-04-25T15:07:27.740Z,1.87
2018-04-25T15:09:55.392Z,1.60
2018-04-25T15:12:23.063Z,1.57
2018-04-25T15:14:50.774Z,1.60
2018-04-25T15:17:18.392Z,1.70
2018-04-25T15:19:45.933Z,1.60
2018-04-25T15:22:13.474Z,1.70
2018-04-25T15:24:41.180Z,1.73
2018-04-25T15:27:09.668Z,1.50
2018-04-25T15:29:37.381Z,2.77
2018-04-25T15:32:04.996Z,2.00
2018-04-25T15:34:32.597Z,1.80
2018-04-25T15:37:00.255Z,1.83
2018-04-25T15:39:28.776Z,1.80
2018-04-25T15:41:56.462Z,1.90
2018-04-25T15:44:24.048Z,2.40
2018-04-25T15:47:02.552Z,2.00
2018-04-25T15:49:33.547Z,1.70
2018-04-25T15:52:02.808Z,1.70
2018-04-25T15:54:30.420Z,1.50
2018-04-25T15:56:58.836Z,1.60
2018-04-25T15:59:26.443Z,1.67
2018-04-25T16:01:54.813Z,1.70
2018-04-25T16:04:22.522Z,2.07
2018-04-25T16:06:50.095Z,2.20
2018-04-25T16:09:18.502Z,1.70
2018-04-25T16:11:46.157Z,1.80
2018-04-25T16:14:13.771Z,1.67
2018-04-25T16:16:42.836Z,1.70
2018-04-25T16:19:10.414Z,2.07
2018-04-25T16:21:38.796Z,2.07
2018-04-25T16:24:06.343Z,2.10
2018-04-25T16:26:33.939Z,2.13
2018-04-25T16:29:01.563Z,2.17
2018-04-25T16:31:29.225Z,2.93
2018-04-25T16:33:56.826Z,1.90
2018-04-25T16:36:25.209Z,2.23
2018-04-25T16:38:53.535Z,1.90
2018-04-25T16:41:21.111Z,2.07
2018-04-25T16:43:48.720Z,2.40
2018-04-25T16:46:17.637Z,2.03
2018-04-25T16:48:45.264Z,1.80
2018-04-25T16:51:13.589Z,1.63
2018-04-25T16:53:41.260Z,1.77
2018-04-25T16:56:09.005Z,1.83
2018-04-25T16:58:36.626Z,1.70
2018-04-25T17:01:04.399Z,2.00
2018-04-25T17:03:32.706Z,2.13
2018-04-25T17:06:00.371Z,1.70
2018-04-25T17:08:27.948Z,2.07
2018-04-25T17:10:55.569Z,2.17
2018-04-25T17:13:23.150Z,2.27
2018-04-25T17:15:51.228Z,1.93
2018-04-25T17:18:18.972Z,2.10
2018-04-25T17:20:46.630Z,2.77
2018-04-25T17:23:14.244Z,1.90
2018-04-25T17:25:41.805Z,2.10
2018-04-25T17:28:09.401Z,1.90
2018-04-25T17:30:37.057Z,1.87
2018-04-25T17:33:05.491Z,1.90
2018-04-25T17:35:33.119Z,2.07
2018-04-25T17:38:00.676Z,1.80
2018-04-25T17:40:28.255Z,2.20
2018-04-25T17:42:56.782Z,2.03
2018-04-25T17:45:25.296Z,1.70
2018-04-25T17:47:52.803Z,1.87
2018-04-25T17:50:21.092Z,2.40
2018-04-25T17:52:48.932Z,2.20
2018-04-25T17:55:16.507Z,2.20
2018-04-25T17:57:44.138Z,2.30
2018-04-25T18:00:11.760Z,2.47
2018-04-25T18:02:40.196Z,1.93
2018-04-25T18:05:07.861Z,1.87
2018-04-25T18:07:35.423Z,1.97
2018-04-25T18:10:03.824Z,1.87
2018-04-25T18:12:31.626Z,2.12
2018-04-25T18:14:59.199Z,1.95
2018-04-25T18:17:26.892Z,3.03
2018-04-25T18:19:54.700Z,2.20
2018-04-25T18:22:23.112Z,1.92
2018-04-25T18:24:50.731Z,2.40
2018-04-25T18:27:19.140Z,3.03
2018-04-25T18:29:46.868Z,2.00
2018-04-25T18:32:16.043Z,2.03
2018-04-25T18:34:43.666Z,1.65
2018-04-25T18:37:12.100Z,2.15
2018-04-25T18:39:39.773Z,2.42
2018-04-25T18:42:08.271Z,2.60
2018-04-25T18:44:35.958Z,2.23
2018-04-25T18:47:04.516Z,1.90
2018-04-25T18:49:32.290Z,3.10
2018-04-25T18:51:59.926Z,2.75
2018-04-25T18:54:27.624Z,2.20
2018-04-25T18:56:55.326Z,3.30
2018-04-25T18:59:23.863Z,2.45
2018-04-25T19:01:52.291Z,2.40
2018-04-25T19:04:19.963Z,2.20
2018-04-25T19:06:47.646Z,2.45
2018-04-25T19:09:15.321Z,4.15
2018-04-25T19:11:43.071Z,7.85
2018-04-25T19:14:10.847Z,2.22
2018-04-25T19:16:38.363Z,2.58
2018-04-25T19:19:05.932Z,2.33
2018-04-25T19:21:33.595Z,1.75
2018-04-25T19:24:01.294Z,2.25
2018-04-25T19:26:29.867Z,3.50
2018-04-25T19:28:57.403Z,2.83
2018-04-25T19:31:24.904Z,2.25
2018-04-25T19:33:52.645Z,3.17
2018-04-25T19:36:20.409Z,3.15
2018-04-25T19:38:47.958Z,3.25
2018-04-25T19:41:15.483Z,2.15
2018-04-25T19:43:42.994Z,2.10
2018-04-25T19:46:11.279Z,2.47
2018-04-25T19:48:39.022Z,3.25
2018-04-25T19:51:06.905Z,2.50
2018-04-25T19:53:35.452Z,2.35
2018-04-25T19:56:04.657Z,2.47
2018-04-25T19:58:32.622Z,3.33
2018-04-25T20:01:00.298Z,2.75
2018-04-25T20:03:27.815Z,3.15
2018-04-25T20:05:55.562Z,3.05
2018-04-25T20:08:23.224Z,2.50
2018-04-25T20:10:51.563Z,2.35
2018-04-25T20:13:19.308Z,2.05
2018-04-25T20:15:46.983Z,2.65
2018-04-25T20:18:14.759Z,2.95
2018-04-25T20:20:42.395Z,3.05
2018-04-25T20:23:10.067Z,2.97
2018-04-25T20:25:37.826Z,1.90
2018-04-25T20:28:05.528Z,1.85
2018-04-25T20:30:33.328Z,2.90
2018-04-25T20:33:01.721Z,2.15
2018-04-25T20:35:29.676Z,2.45
2018-04-25T20:37:57.260Z,2.40
2018-04-25T20:40:24.867Z,2.45
2018-04-25T20:42:53.308Z,2.58
2018-04-25T20:45:20.969Z,2.62
2018-04-25T20:47:48.731Z,2.70
2018-04-25T20:50:16.395Z,2.20
2018-04-25T20:52:44.199Z,2.80
2018-04-25T20:55:12.739Z,2.50
2018-04-25T20:57:40.415Z,2.50
2018-04-25T21:00:08.140Z,2.72
2018-04-25T21:02:36.045Z,2.90
2018-04-25T21:05:04.748Z,2.78
2018-04-25T21:07:33.200Z,2.85
2018-04-25T21:10:01.695Z,2.47
2018-04-25T21:12:30.240Z,2.87
2018-04-25T21:14:58.026Z,2.90
2018-04-25T21:17:26.637Z,2.40
2018-04-25T21:19:54.168Z,3.17
2018-04-25T21:22:22.490Z,3.90
2018-04-25T21:24:50.132Z,3.20
2018-04-25T21:27:17.655Z,2.75
2018-04-25T21:29:45.368Z,3.03
2018-04-25T21:32:13.990Z,2.75
2018-04-25T21:34:41.754Z,2.20
2018-04-25T21:37:09.398Z,3.65
2018-04-25T21:39:37.070Z,2.50
2018-04-25T21:42:04.722Z,2.67
2018-04-25T21:44:33.182Z,3.10
2018-04-25T21:47:00.822Z,2.80
2018-04-25T21:49:28.382Z,2.80
2018-04-25T21:51:56.096Z,2.80
2018-04-25T21:54:23.752Z,3.90
2018-04-25T21:56:51.364Z,5.85
2018-04-25T21:59:19.027Z,3.53
2018-04-25T22:01:46.674Z,3.03
2018-04-25T22:04:14.445Z,2.80
2018-04-25T22:06:42.206Z,2.65
2018-04-25T22:09:10.028Z,2.80
2018-04-25T22:11:38.417Z,3.83
2018-04-25T22:14:06.061Z,3.62
2018-04-25T22:16:34.408Z,2.92
2018-04-25T22:19:02.166Z,3.80
2018-04-25T22:21:30.536Z,2.78
2018-04-25T22:23:58.215Z,2.90
2018-04-25T22:26:25.821Z,3.00
2018-04-25T22:28:53.410Z,3.25
2018-04-25T22:31:21.779Z,3.00
2018-04-25T22:33:49.339Z,3.37
2018-04-25T22:36:16.900Z,2.92
2018-04-25T22:38:44.554Z,2.40
2018-04-25T22:41:12.183Z,3.15
2018-04-25T22:43:39.766Z,3.53
2018-04-25T22:46:07.468Z,3.50
2018-04-25T22:48:35.125Z,2.75
2018-04-25T22:51:02.673Z,3.37
2018-04-25T22:53:30.244Z,3.58
2018-04-25T22:55:57.900Z,3.55
2018-04-25T22:58:25.523Z,3.35
2018-04-25T23:00:53.115Z,3.45
2018-04-25T23:03:20.794Z,3.92
2018-04-25T23:05:49.152Z,2.70
2018-04-25T23:08:16.708Z,3.15
2018-04-25T23:10:44.279Z,3.10
2018-04-25T23:13:11.890Z,3.80
2018-04-25T23:15:40.171Z,3.62
2018-04-25T23:18:07.780Z,3.53
2018-04-25T23:20:35.427Z,3.35
2018-04-25T23:23:03.034Z,3.60
2018-04-25T23:25:30.679Z,3.22
2018-04-25T23:27:58.181Z,3.10
2018-04-25T23:30:26.476Z,4.10
2018-04-25T23:32:54.059Z,4.47
2018-04-25T23:35:21.579Z,3.40
2018-04-25T23:37:49.971Z,3.25
2018-04-25T23:40:17.487Z,5.32
2018-04-25T23:42:45.080Z,4.28
2018-04-25T23:45:13.405Z,3.10
2018-04-25T23:47:40.930Z,3.70
2018-04-25T23:50:08.510Z,4.10
2018-04-25T23:52:36.237Z,4.55
2018-04-25T23:55:03.915Z,3.53
2018-04-25T23:57:31.565Z,3.92
2018-04-25T23:59:59.193Z,3.50
